Terminal Aerodrome Forecast
Issued by NWS Nashville, TN

Current Version | Previous Version | Text Only | Print | Product List | Glossary Off
Versions: 1 2 3 4 5 6 7 8 9 10 11 12 13 14 15 16 17 18 19 20 21 22 23 24 25

000
FTUS44 KOHX 291700 RRA
TAFCSV
TAF
KCSV 291742Z 2918/3018 18010G20KT P6SM SCT250
     FM300400 19009KT P6SM BKN030 BKN250
     FM300600 22009KT 6SM -SHRA SCT010 OVC030
      TEMPO 3010/3014 4SM -SHRA BKN010 OVC030
     FM301600 31006KT P6SM SCT250=

USA.gov is the U.S. government's official web portal to all federal, state and local government web resources and services.